sensor_id;sensor_type;location;lat;lon;timestamp;pressure;altitude;pressure_sealevel;temperature;humidity
3142;BME280;1581;51.568;6.998;2023-02-23T00:01:51;100539.00;;;10.46;100.00
3142;BME280;1581;51.568;6.998;2023-02-23T00:04:18;100541.47;;;10.47;100.00
3142;BME280;1581;51.568;6.998;2023-02-23T00:06:46;100541.44;;;10.68;100.00
3142;BME280;1581;51.568;6.998;2023-02-23T00:09:17;100548.16;;;10.64;100.00
3142;BME280;1581;51.568;6.998;2023-02-23T00:11:50;100538.38;;;10.44;100.00
3142;BME280;1581;51.568;6.998;2023-02-23T00:14:18;100540.19;;;10.43;100.00
3142;BME280;1581;51.568;6.998;2023-02-23T00:16:45;100537.06;;;10.61;100.00
3142;BME280;1581;51.568;6.998;2023-02-23T00:19:14;100543.13;;;10.48;100.00
3142;BME280;1581;51.568;6.998;2023-02-23T00:21:42;100536.56;;;10.51;100.00
3142;BME280;1581;51.568;6.998;2023-02-23T00:24:12;100536.81;;;10.56;100.00
3142;BME280;1581;51.568;6.998;2023-02-23T00:26:41;100534.41;;;10.61;100.00
3142;BME280;1581;51.568;6.998;2023-02-23T00:29:13;100531.00;;;10.73;100.00
3142;BME280;1581;51.568;6.998;2023-02-23T00:31:42;100537.50;;;10.16;100.00
3142;BME280;1581;51.568;6.998;2023-02-23T00:34:12;100525.00;;;10.17;100.00
3142;BME280;1581;51.568;6.998;2023-02-23T00:36:42;100527.44;;;10.12;100.00
3142;BME280;1581;51.568;6.998;2023-02-23T00:39:11;100524.69;;;10.26;100.00
3142;BME280;1581;51.568;6.998;2023-02-23T00:41:46;100533.25;;;10.42;100.00
3142;BME280;1581;51.568;6.998;2023-02-23T00:44:14;100530.56;;;10.42;100.00
3142;BME280;1581;51.568;6.998;2023-02-23T00:46:44;100531.09;;;10.31;100.00
3142;BME280;1581;51.568;6.998;2023-02-23T00:49:14;100522.97;;;10.19;100.00
3142;BME280;1581;51.568;6.998;2023-02-23T00:51:43;100530.69;;;10.34;100.00
3142;BME280;1581;51.568;6.998;2023-02-23T00:54:13;100524.47;;;10.48;100.00
3142;BME280;1581;51.568;6.998;2023-02-23T00:56:41;100526.44;;;10.40;100.00
3142;BME280;1581;51.568;6.998;2023-02-23T00:59:09;100522.22;;;10.04;100.00
3142;BME280;1581;51.568;6.998;2023-02-23T01:01:37;100522.06;;;9.91;100.00
3142;BME280;1581;51.568;6.998;2023-02-23T01:04:07;100524.69;;;10.26;100.00
3142;BME280;1581;51.568;6.998;2023-02-23T01:06:34;100527.88;;;10.15;100.00
3142;BME280;1581;51.568;6.998;2023-02-23T01:09:09;100530.03;;;10.26;100.00
3142;BME280;1581;51.568;6.998;2023-02-23T01:11:39;100522.25;;;10.31;100.00
3142;BME280;1581;51.568;6.998;2023-02-23T01:14:08;100518.66;;;10.38;100.00
3142;BME280;1581;51.568;6.998;2023-02-23T01:16:36;100524.13;;;10.30;100.00
3142;BME280;1581;51.568;6.998;2023-02-23T01:19:05;100521.69;;;10.35;100.00
3142;BME280;1581;51.568;6.998;2023-02-23T01:21:39;100524.84;;;10.18;100.00
3142;BME280;1581;51.568;6.998;2023-02-23T01:24:10;100526.72;;;10.24;100.00
3142;BME280;1581;51.568;6.998;2023-02-23T01:26:41;100527.53;;;10.04;100.00
3142;BME280;1581;51.568;6.998;2023-02-23T01:29:11;100527.38;;;9.91;100.00
3142;BME280;1581;51.568;6.998;2023-02-23T01:31:42;100525.06;;;10.02;100.00
3142;BME280;1581;51.568;6.998;2023-02-23T01:34:12;100527.81;;;10.09;100.00
3142;BME280;1581;51.568;6.998;2023-02-23T01:36:42;100529.31;;;10.18;100.00
3142;BME280;1581;51.568;6.998;2023-02-23T01:39:14;100528.09;;;10.20;100.00
3142;BME280;1581;51.568;6.998;2023-02-23T01:41:42;100529.00;;;10.27;100.00
3142;BME280;1581;51.568;6.998;2023-02-23T01:45:16;100527.72;;;10.23;100.00
3142;BME280;1581;51.568;6.998;2023-02-23T01:47:44;100528.00;;;10.28;100.00
3142;BME280;1581;51.568;6.998;2023-02-23T01:50:13;100532.09;;;10.30;100.00
3142;BME280;1581;51.568;6.998;2023-02-23T01:52:42;100525.19;;;10.36;100.00
3142;BME280;1581;51.568;6.998;2023-02-23T01:55:12;100535.06;;;10.42;100.00
3142;BME280;1581;51.568;6.998;2023-02-23T01:57:49;100532.41;;;10.42;100.00
3142;BME280;1581;51.568;6.998;2023-02-23T02:00:20;100527.66;;;10.17;100.00
3142;BME280;1581;51.568;6.998;2023-02-23T02:02:51;100535.28;;;9.99;100.00
3142;BME280;1581;51.568;6.998;2023-02-23T02:05:20;100531.41;;;10.22;100.00
3142;BME280;1581;51.568;6.998;2023-02-23T02:07:49;100532.94;;;10.10;100.00
3142;BME280;1581;51.568;6.998;2023-02-23T02:10:26;100532.81;;;10.18;100.00
3142;BME280;1581;51.568;6.998;2023-02-23T02:13:07;100528.94;;;10.21;100.00
3142;BME280;1581;51.568;6.998;2023-02-23T02:18:41;100526.56;;;10.32;100.00
3142;BME280;1581;51.568;6.998;2023-02-23T02:25:26;100526.13;;;10.28;100.00
3142;BME280;1581;51.568;6.998;2023-02-23T02:31:49;100524.06;;;10.24;100.00
3142;BME280;1581;51.568;6.998;2023-02-23T02:34:56;100520.81;;;10.28;100.00
3142;BME280;1581;51.568;6.998;2023-02-23T02:38:03;100518.78;;;10.30;100.00
3142;BME280;1581;51.568;6.998;2023-02-23T02:40:43;100517.38;;;10.34;100.00
3142;BME280;1581;51.568;6.998;2023-02-23T02:43:27;100513.03;;;10.27;100.00
3142;BME280;1581;51.568;6.998;2023-02-23T02:46:07;100512.03;;;10.34;100.00
3142;BME280;1581;51.568;6.998;2023-02-23T02:48:47;100507.78;;;10.40;100.00
3142;BME280;1581;51.568;6.998;2023-02-23T02:51:24;100512.94;;;10.41;100.00
3142;BME280;1581;51.568;6.998;2023-02-23T02:54:00;100515.19;;;10.44;100.00
3142;BME280;1581;51.568;6.998;2023-02-23T02:56:35;100512.44;;;10.31;100.00
3142;BME280;1581;51.568;6.998;2023-02-23T02:59:08;100507.94;;;10.32;100.00
3142;BME280;1581;51.568;6.998;2023-02-23T03:01:54;100516.28;;;10.23;100.00
3142;BME280;1581;51.568;6.998;2023-02-23T03:04:40;100510.38;;;10.27;100.00
3142;BME280;1581;51.568;6.998;2023-02-23T03:07:33;100512.44;;;10.31;100.00
3142;BME280;1581;51.568;6.998;2023-02-23T03:10:28;100518.00;;;10.36;100.00
3142;BME280;1581;51.568;6.998;2023-02-23T03:13:34;100506.63;;;10.22;100.00
3142;BME280;1581;51.568;6.998;2023-02-23T03:16:29;100509.72;;;10.25;100.00
3142;BME280;1581;51.568;6.998;2023-02-23T03:19:18;100511.47;;;10.12;100.00
3142;BME280;1581;51.568;6.998;2023-02-23T03:22:13;100513.66;;;9.87;100.00
3142;BME280;1581;51.568;6.998;2023-02-23T03:25:06;100518.94;;;10.02;100.00
3142;BME280;1581;51.568;6.998;2023-02-23T03:28:02;100516.44;;;10.00;100.00
3142;BME280;1581;51.568;6.998;2023-02-23T03:31:00;100523.16;;;9.96;100.00
3142;BME280;1581;51.568;6.998;2023-02-23T03:33:54;100521.66;;;9.94;100.00
3142;BME280;1581;51.568;6.998;2023-02-23T03:36:50;100522.81;;;9.85;100.00
3142;BME280;1581;51.568;6.998;2023-02-23T03:39:41;100527.31;;;9.84;100.00
3142;BME280;1581;51.568;6.998;2023-02-23T03:42:31;100525.34;;;9.72;100.00
3142;BME280;1581;51.568;6.998;2023-02-23T03:45:23;100518.44;;;9.77;100.00
3142;BME280;1581;51.568;6.998;2023-02-23T03:48:12;100523.34;;;9.59;100.00
3142;BME280;1581;51.568;6.998;2023-02-23T03:51:05;100524.19;;;9.60;100.00
3142;BME280;1581;51.568;6.998;2023-02-23T03:53:59;100525.50;;;9.70;100.00
3142;BME280;1581;51.568;6.998;2023-02-23T03:56:49;100530.78;;;9.49;100.00
3142;BME280;1581;51.568;6.998;2023-02-23T03:59:40;100527.66;;;9.60;100.00
3142;BME280;1581;51.568;6.998;2023-02-23T04:02:30;100524.25;;;9.66;100.00
3142;BME280;1581;51.568;6.998;2023-02-23T04:05:18;100521.59;;;9.31;100.00
3142;BME280;1581;51.568;6.998;2023-02-23T04:08:10;100521.69;;;9.23;100.00
3142;BME280;1581;51.568;6.998;2023-02-23T04:11:09;100530.75;;;9.29;100.00
3142;BME280;1581;51.568;6.998;2023-02-23T04:14:00;100529.28;;;9.26;100.00
3142;BME280;1581;51.568;6.998;2023-02-23T04:16:30;100526.47;;;9.48;100.00
3142;BME280;1581;51.568;6.998;2023-02-23T04:18:59;100532.75;;;9.41;100.00
3142;BME280;1581;51.568;6.998;2023-02-23T04:21:27;100530.44;;;9.52;100.00
3142;BME280;1581;51.568;6.998;2023-02-23T04:23:55;100532.31;;;9.73;100.00
3142;BME280;1581;51.568;6.998;2023-02-23T04:26:23;100537.25;;;9.76;100.00
3142;BME280;1581;51.568;6.998;2023-02-23T04:28:50;100539.19;;;9.82;100.00
3142;BME280;1581;51.568;6.998;2023-02-23T04:31:18;100533.44;;;9.85;100.00
3142;BME280;1581;51.568;6.998;2023-02-23T04:33:45;100535.88;;;9.80;100.00
3142;BME280;1581;51.568;6.998;2023-02-23T04:36:14;100540.81;;;9.83;100.00
3142;BME280;1581;51.568;6.998;2023-02-23T04:38:42;100543.91;;;9.65;100.00
3142;BME280;1581;51.568;6.998;2023-02-23T04:41:10;100532.94;;;9.75;100.00
3142;BME280;1581;51.568;6.998;2023-02-23T04:43:37;100537.84;;;9.57;100.00
3142;BME280;1581;51.568;6.998;2023-02-23T04:46:06;100537.13;;;9.63;100.00
3142;BME280;1581;51.568;6.998;2023-02-23T04:48:34;100540.66;;;9.70;100.00
3142;BME280;1581;51.568;6.998;2023-02-23T04:51:02;100544.25;;;9.62;100.00
3142;BME280;1581;51.568;6.998;2023-02-23T04:53:31;100542.75;;;9.74;100.00
3142;BME280;1581;51.568;6.998;2023-02-23T04:55:59;100538.16;;;9.83;100.00
3142;BME280;1581;51.568;6.998;2023-02-23T04:58:27;100534.72;;;9.68;100.00
3142;BME280;1581;51.568;6.998;2023-02-23T05:00:54;100538.00;;;9.70;100.00
3142;BME280;1581;51.568;6.998;2023-02-23T05:03:23;100539.72;;;9.42;100.00
3142;BME280;1581;51.568;6.998;2023-02-23T05:05:50;100540.50;;;9.57;100.00
3142;BME280;1581;51.568;6.998;2023-02-23T05:08:18;100539.78;;;9.63;100.00
3142;BME280;1581;51.568;6.998;2023-02-23T05:10:47;100541.75;;;9.75;100.00
3142;BME280;1581;51.568;6.998;2023-02-23T05:13:14;100540.38;;;9.65;100.00
3142;BME280;1581;51.568;6.998;2023-02-23T05:15:42;100551.75;;;9.73;100.00
3142;BME280;1581;51.568;6.998;2023-02-23T05:18:10;100549.66;;;9.69;100.00
3142;BME280;1581;51.568;6.998;2023-02-23T05:20:41;100550.38;;;9.77;100.00
3142;BME280;1581;51.568;6.998;2023-02-23T05:23:10;100550.38;;;9.77;100.00
3142;BME280;1581;51.568;6.998;2023-02-23T05:25:38;100553.94;;;9.84;100.00
3142;BME280;1581;51.568;6.998;2023-02-23T05:28:07;100549.66;;;9.69;100.00
3142;BME280;1581;51.568;6.998;2023-02-23T05:30:36;100553.66;;;9.79;100.00
3142;BME280;1581;51.568;6.998;2023-02-23T05:33:03;100552.72;;;9.87;100.00
3142;BME280;1581;51.568;6.998;2023-02-23T05:35:31;100550.06;;;9.87;100.00
3142;BME280;1581;51.568;6.998;2023-02-23T05:37:59;100554.66;;;9.93;100.00
3142;BME280;1581;51.568;6.998;2023-02-23T05:40:28;100557.03;;;9.88;100.00
3142;BME280;1581;51.568;6.998;2023-02-23T05:42:58;100554.38;;;9.88;100.00
3142;BME280;1581;51.568;6.998;2023-02-23T05:45:27;100562.16;;;9.89;100.00
3142;BME280;1581;51.568;6.998;2023-02-23T05:47:55;100555.22;;;9.74;100.00
3142;BME280;1581;51.568;6.998;2023-02-23T05:50:23;100557.66;;;9.69;100.00
3142;BME280;1581;51.568;6.998;2023-02-23T05:52:51;100551.19;;;9.78;100.00
3142;BME280;1581;51.568;6.998;2023-02-23T05:55:18;100554.34;;;9.67;100.00
3142;BME280;1581;51.568;6.998;2023-02-23T05:57:46;100557.19;;;9.65;100.00
3142;BME280;1581;51.568;6.998;2023-02-23T06:00:16;100558.81;;;9.81;100.00
3142;BME280;1581;51.568;6.998;2023-02-23T06:02:45;100560.31;;;9.69;100.00
3142;BME280;1581;51.568;6.998;2023-02-23T06:05:13;100562.44;;;9.94;100.00
3142;BME280;1581;51.568;6.998;2023-02-23T06:07:41;100563.13;;;9.82;100.00
3142;BME280;1581;51.568;6.998;2023-02-23T06:10:10;100565.84;;;9.88;100.00
3142;BME280;1581;51.568;6.998;2023-02-23T06:12:38;100567.81;;;9.80;100.00
3142;BME280;1581;51.568;6.998;2023-02-23T06:15:07;100575.72;;;9.59;100.00
3142;BME280;1581;51.568;6.998;2023-02-23T06:17:35;100568.66;;;9.66;100.00
3142;BME280;1581;51.568;6.998;2023-02-23T06:20:05;100567.13;;;9.57;100.00
3142;BME280;1581;51.568;6.998;2023-02-23T06:22:33;100573.34;;;9.49;100.00
3142;BME280;1581;51.568;6.998;2023-02-23T06:25:01;100575.66;;;9.38;100.00
3142;BME280;1581;51.568;6.998;2023-02-23T06:27:30;100580.13;;;9.66;100.00
3142;BME280;1581;51.568;6.998;2023-02-23T06:29:58;100586.06;;;9.68;100.00
3142;BME280;1581;51.568;6.998;2023-02-23T06:32:26;100584.81;;;9.64;100.00
3142;BME280;1581;51.568;6.998;2023-02-23T06:34:53;100593.13;;;9.76;100.00
3142;BME280;1581;51.568;6.998;2023-02-23T06:37:22;100592.44;;;9.67;100.00
3142;BME280;1581;51.568;6.998;2023-02-23T06:39:50;100596.78;;;9.75;100.00
3142;BME280;1581;51.568;6.998;2023-02-23T06:42:18;100595.78;;;9.76;100.00
3142;BME280;1581;51.568;6.998;2023-02-23T06:44:45;100602.13;;;9.75;100.00
3142;BME280;1581;51.568;6.998;2023-02-23T06:47:13;100606.22;;;9.92;100.00
3142;BME280;1581;51.568;6.998;2023-02-23T06:49:41;100609.00;;;9.69;100.00
3142;BME280;1581;51.568;6.998;2023-02-23T06:52:09;100605.41;;;9.77;100.00
3142;BME280;1581;51.568;6.998;2023-02-23T06:54:40;100612.91;;;10.02;100.00
3142;BME280;1581;51.568;6.998;2023-02-23T06:57:08;100615.13;;;9.99;100.00
3142;BME280;1581;51.568;6.998;2023-02-23T06:59:35;100617.47;;;9.94;100.00
3142;BME280;1581;51.568;6.998;2023-02-23T07:02:04;100618.47;;;10.22;100.00
3142;BME280;1581;51.568;6.998;2023-02-23T07:04:32;100613.72;;;9.88;100.00
3142;BME280;1581;51.568;6.998;2023-02-23T07:07:00;100616.81;;;10.21;100.00
3142;BME280;1581;51.568;6.998;2023-02-23T07:09:28;100619.53;;;9.92;100.00
3142;BME280;1581;51.568;6.998;2023-02-23T07:11:58;100625.78;;;9.99;100.00
3142;BME280;1581;51.568;6.998;2023-02-23T07:14:26;100627.97;;;9.95;100.00
3142;BME280;1581;51.568;6.998;2023-02-23T07:16:54;100633.78;;;9.99;100.00
3142;BME280;1581;51.568;6.998;2023-02-23T07:19:22;100634.31;;;9.94;100.00
3142;BME280;1581;51.568;6.998;2023-02-23T07:21:50;100629.56;;;9.75;100.00
3142;BME280;1581;51.568;6.998;2023-02-23T07:24:18;100627.03;;;9.88;100.00
3142;BME280;1581;51.568;6.998;2023-02-23T07:26:47;100634.56;;;9.99;100.00
3142;BME280;1581;51.568;6.998;2023-02-23T07:29:16;100635.22;;;10.01;100.00
3142;BME280;1581;51.568;6.998;2023-02-23T07:31:44;100645.41;;;9.98;100.00
3142;BME280;1581;51.568;6.998;2023-02-23T07:34:15;100643.53;;;9.63;100.00
3142;BME280;1581;51.568;6.998;2023-02-23T07:36:43;100649.66;;;9.49;100.00
3142;BME280;1581;51.568;6.998;2023-02-23T07:39:11;100650.97;;;9.53;100.00
3142;BME280;1581;51.568;6.998;2023-02-23T07:41:39;100648.66;;;9.64;100.00
3142;BME280;1581;51.568;6.998;2023-02-23T07:44:07;100657.91;;;9.54;100.00
3142;BME280;1581;51.568;6.998;2023-02-23T07:46:36;100653.69;;;9.74;100.00
3142;BME280;1581;51.568;6.998;2023-02-23T07:49:03;100653.94;;;9.93;100.00
3142;BME280;1581;51.568;6.998;2023-02-23T07:51:31;100658.38;;;9.86;100.00
3142;BME280;1581;51.568;6.998;2023-02-23T07:54:02;100669.94;;;9.50;100.00
3142;BME280;1581;51.568;6.998;2023-02-23T07:56:31;100667.09;;;9.66;100.00
3142;BME280;1581;51.568;6.998;2023-02-23T07:58:59;100670.03;;;9.42;100.00
3142;BME280;1581;51.568;6.998;2023-02-23T08:01:26;100675.91;;;9.23;100.00
3142;BME280;1581;51.568;6.998;2023-02-23T08:03:56;100669.03;;;9.43;100.00
3142;BME280;1581;51.568;6.998;2023-02-23T08:06:26;100676.72;;;9.81;100.00
3142;BME280;1581;51.568;6.998;2023-02-23T08:08:54;100667.81;;;9.74;100.00
3142;BME280;1581;51.568;6.998;2023-02-23T08:11:21;100677.09;;;9.93;100.00
3142;BME280;1581;51.568;6.998;2023-02-23T08:13:49;100675.97;;;10.16;100.00
3142;BME280;1581;51.568;6.998;2023-02-23T08:16:17;100679.66;;;10.01;100.00
3142;BME280;1581;51.568;6.998;2023-02-23T08:18:44;100681.19;;;9.95;100.00
3142;BME280;1581;51.568;6.998;2023-02-23T08:21:13;100683.91;;;10.30;100.00
3142;BME280;1581;51.568;6.998;2023-02-23T08:23:41;100690.13;;;10.37;100.00
3142;BME280;1581;51.568;6.998;2023-02-23T08:26:09;100687.09;;;10.05;100.00
3142;BME280;1581;51.568;6.998;2023-02-23T08:28:37;100692.38;;;10.20;100.00
3142;BME280;1581;51.568;6.998;2023-02-23T08:31:08;100695.16;;;10.12;100.00
3142;BME280;1581;51.568;6.998;2023-02-23T08:33:36;100688.19;;;10.11;100.00
3142;BME280;1581;51.568;6.998;2023-02-23T08:36:06;100703.03;;;10.20;100.00
3142;BME280;1581;51.568;6.998;2023-02-23T08:38:35;100697.16;;;10.24;100.00
3142;BME280;1581;51.568;6.998;2023-02-23T08:41:03;100700.00;;;10.43;100.00
3142;BME280;1581;51.568;6.998;2023-02-23T08:43:32;100703.53;;;10.44;100.00
3142;BME280;1581;51.568;6.998;2023-02-23T08:45:59;100707.56;;;10.40;100.00
3142;BME280;1581;51.568;6.998;2023-02-23T08:48:26;100699.72;;;10.18;100.00
3142;BME280;1581;51.568;6.998;2023-02-23T08:50:56;100708.00;;;10.23;100.00
3142;BME280;1581;51.568;6.998;2023-02-23T08:53:24;100710.75;;;10.15;100.00
3142;BME280;1581;51.568;6.998;2023-02-23T08:55:57;100714.59;;;10.27;100.00
3142;BME280;1581;51.568;6.998;2023-02-23T08:58:25;100714.44;;;10.49;100.00
3142;BME280;1581;51.568;6.998;2023-02-23T09:00:53;100714.63;;;10.12;100.00
3142;BME280;1581;51.568;6.998;2023-02-23T09:03:22;100708.56;;;10.18;100.00
3142;BME280;1581;51.568;6.998;2023-02-23T09:05:51;100712.25;;;10.03;100.00
3142;BME280;1581;51.568;6.998;2023-02-23T09:08:19;100716.59;;;10.25;100.00
3142;BME280;1581;51.568;6.998;2023-02-23T09:10:47;100716.19;;;10.42;100.00
3142;BME280;1581;51.568;6.998;2023-02-23T09:13:16;100719.94;;;10.47;100.00
3142;BME280;1581;51.568;6.998;2023-02-23T09:15:43;100732.84;;;10.65;100.00
3142;BME280;1581;51.568;6.998;2023-02-23T09:18:12;100724.97;;;10.99;100.00
3142;BME280;1581;51.568;6.998;2023-02-23T09:20:41;100730.88;;;11.15;100.00
3142;BME280;1581;51.568;6.998;2023-02-23T09:23:09;100731.94;;;11.20;100.00
3142;BME280;1581;51.568;6.998;2023-02-23T09:25:39;100734.09;;;11.11;100.00
3142;BME280;1581;51.568;6.998;2023-02-23T09:28:10;100731.72;;;11.15;100.00
3142;BME280;1581;51.568;6.998;2023-02-23T09:30:41;100730.06;;;11.63;100.00
3142;BME280;1581;51.568;6.998;2023-02-23T09:33:10;100728.00;;;11.99;100.00
3142;BME280;1581;51.568;6.998;2023-02-23T09:35:38;100737.66;;;12.46;100.00
3142;BME280;1581;51.568;6.998;2023-02-23T09:38:09;100738.94;;;12.63;100.00
3142;BME280;1581;51.568;6.998;2023-02-23T09:40:44;100745.19;;;12.89;100.00
3142;BME280;1581;51.568;6.998;2023-02-23T09:43:15;100749.75;;;13.02;100.00
3142;BME280;1581;51.568;6.998;2023-02-23T09:45:52;100754.28;;;13.08;100.00
3142;BME280;1581;51.568;6.998;2023-02-23T09:48:26;100757.81;;;13.28;100.00
3142;BME280;1581;51.568;6.998;2023-02-23T09:50:56;100758.69;;;12.69;100.00
3142;BME280;1581;51.568;6.998;2023-02-23T09:53:33;100756.19;;;12.54;100.00
3142;BME280;1581;51.568;6.998;2023-02-23T09:56:10;100759.97;;;12.79;100.00
3142;BME280;1581;51.568;6.998;2023-02-23T09:58:39;100764.59;;;13.11;100.00
3142;BME280;1581;51.568;6.998;2023-02-23T10:01:50;100759.72;;;12.74;100.00
3142;BME280;1581;51.568;6.998;2023-02-23T10:04:22;100762.53;;;12.47;100.00
3142;BME280;1581;51.568;6.998;2023-02-23T10:06:57;100769.88;;;12.32;100.00
3142;BME280;1581;51.568;6.998;2023-02-23T10:09:44;100769.31;;;12.02;100.00
3142;BME280;1581;51.568;6.998;2023-02-23T10:12:21;100769.06;;;12.31;100.00
3142;BME280;1581;51.568;6.998;2023-02-23T10:15:02;100771.06;;;11.89;100.00
3142;BME280;1581;51.568;6.998;2023-02-23T10:17:40;100774.19;;;11.93;100.00
3142;BME280;1581;51.568;6.998;2023-02-23T10:20:21;100782.56;;;11.14;100.00
3142;BME280;1581;51.568;6.998;2023-02-23T10:22:54;100778.44;;;11.32;100.00
3142;BME280;1581;51.568;6.998;2023-02-23T10:25:26;100788.81;;;11.48;100.00
3142;BME280;1581;51.568;6.998;2023-02-23T10:27:55;100780.03;;;11.75;100.00
3142;BME280;1581;51.568;6.998;2023-02-23T10:30:28;100779.63;;;11.78;100.00
3142;BME280;1581;51.568;6.998;2023-02-23T10:33:03;100777.41;;;11.54;100.00
3142;BME280;1581;51.568;6.998;2023-02-23T10:35:33;100776.97;;;10.88;100.00
3142;BME280;1581;51.568;6.998;2023-02-23T10:38:01;100780.94;;;10.92;100.00
3142;BME280;1581;51.568;6.998;2023-02-23T10:40:32;100784.56;;;11.33;100.00
3142;BME280;1581;51.568;6.998;2023-02-23T10:43:02;100785.59;;;10.69;100.00
3142;BME280;1581;51.568;6.998;2023-02-23T10:45:38;100778.69;;;10.75;100.00
3142;BME280;1581;51.568;6.998;2023-02-23T10:48:17;100782.66;;;10.64;100.00
3142;BME280;1581;51.568;6.998;2023-02-23T10:50:48;100788.25;;;10.69;100.00
3142;BME280;1581;51.568;6.998;2023-02-23T10:53:21;100787.53;;;10.61;100.00
3142;BME280;1581;51.568;6.998;2023-02-23T10:56:03;100790.66;;;10.85;100.00
3142;BME280;1581;51.568;6.998;2023-02-23T10:58:40;100784.53;;;10.85;100.00
3142;BME280;1581;51.568;6.998;2023-02-23T11:01:08;100787.38;;;10.62;100.00
3142;BME280;1581;51.568;6.998;2023-02-23T11:03:41;100783.88;;;10.83;100.00
3142;BME280;1581;51.568;6.998;2023-02-23T11:06:27;100788.44;;;10.89;100.00
3142;BME280;1581;51.568;6.998;2023-02-23T11:08:55;100790.66;;;10.85;100.00
3142;BME280;1581;51.568;6.998;2023-02-23T11:11:25;100794.50;;;10.97;100.00
3142;BME280;1581;51.568;6.998;2023-02-23T11:13:55;100802.81;;;11.09;100.00
3142;BME280;1581;51.568;6.998;2023-02-23T11:16:24;100811.19;;;10.49;100.00
3142;BME280;1581;51.568;6.998;2023-02-23T11:18:57;100801.50;;;10.63;100.00
3142;BME280;1581;51.568;6.998;2023-02-23T11:21:27;100808.97;;;10.38;100.00
3142;BME280;1581;51.568;6.998;2023-02-23T11:24:05;100803.91;;;10.43;100.00
3142;BME280;1581;51.568;6.998;2023-02-23T11:26:42;100801.41;;;10.56;100.00
3142;BME280;1581;51.568;6.998;2023-02-23T11:29:17;100795.50;;;10.96;100.00
3142;BME280;1581;51.568;6.998;2023-02-23T11:31:50;100799.56;;;11.34;100.00
3142;BME280;1581;51.568;6.998;2023-02-23T11:34:27;100788.88;;;11.07;100.00
3142;BME280;1581;51.568;6.998;2023-02-23T11:37:03;100790.09;;;11.31;100.00
3142;BME280;1581;51.568;6.998;2023-02-23T11:39:33;100796.84;;;10.86;100.00
3142;BME280;1581;51.568;6.998;2023-02-23T11:42:17;100790.69;;;11.06;100.00
3142;BME280;1581;51.568;6.998;2023-02-23T11:44:50;100794.75;;;11.23;100.00
3142;BME280;1581;51.568;6.998;2023-02-23T11:47:21;100796.63;;;11.50;100.00
3142;BME280;1581;51.568;6.998;2023-02-23T11:49:52;100799.44;;;11.42;100.00
3142;BME280;1581;51.568;6.998;2023-02-23T11:52:23;100802.88;;;11.36;100.00
3142;BME280;1581;51.568;6.998;2023-02-23T11:54:56;100798.25;;;11.23;100.00
3142;BME280;1581;51.568;6.998;2023-02-23T11:57:27;100794.81;;;11.09;100.00
3142;BME280;1581;51.568;6.998;2023-02-23T11:59:57;100785.66;;;10.40;100.00
3142;BME280;1581;51.568;6.998;2023-02-23T12:02:27;100780.41;;;10.82;100.00
3142;BME280;1581;51.568;6.998;2023-02-23T12:05:07;100784.53;;;10.85;100.00
3142;BME280;1581;51.568;6.998;2023-02-23T12:07:38;100782.56;;;10.23;100.00
3142;BME280;1581;51.568;6.998;2023-02-23T12:10:14;100781.38;;;10.11;100.00
3142;BME280;1581;51.568;6.998;2023-02-23T12:12:55;100778.63;;;10.04;100.00
3142;BME280;1581;51.568;6.998;2023-02-23T12:15:35;100778.97;;;10.16;100.00
3142;BME280;1581;51.568;6.998;2023-02-23T12:18:16;100773.44;;;9.88;100.00
3142;BME280;1581;51.568;6.998;2023-02-23T12:20:49;100767.94;;;10.19;100.00
3142;BME280;1581;51.568;6.998;2023-02-23T12:23:23;100780.97;;;10.14;100.00
3142;BME280;1581;51.568;6.998;2023-02-23T12:25:56;100785.47;;;10.27;100.00
3142;BME280;1581;51.568;6.998;2023-02-23T12:28:32;100786.06;;;10.09;100.00
3142;BME280;1581;51.568;6.998;2023-02-23T12:31:05;100788.69;;;10.23;100.00
3142;BME280;1581;51.568;6.998;2023-02-23T12:33:37;100783.59;;;10.07;100.00
3142;BME280;1581;51.568;6.998;2023-02-23T12:36:16;100776.53;;;10.49;100.00
3142;BME280;1581;51.568;6.998;2023-02-23T12:38:53;100780.34;;;10.40;100.00
3142;BME280;1581;51.568;6.998;2023-02-23T12:41:36;100788.69;;;9.94;100.00
3142;BME280;1581;51.568;6.998;2023-02-23T12:44:17;100796.09;;;9.84;100.00
3142;BME280;1581;51.568;6.998;2023-02-23T12:46:51;100789.34;;;10.11;100.00
3142;BME280;1581;51.568;6.998;2023-02-23T12:49:27;100794.47;;;10.41;100.00
3142;BME280;1581;51.568;6.998;2023-02-23T12:52:03;100792.47;;;10.28;100.00
3142;BME280;1581;51.568;6.998;2023-02-23T12:54:34;100786.78;;;10.31;100.00
3142;BME280;1581;51.568;6.998;2023-02-23T12:57:13;100787.38;;;10.33;100.00
3142;BME280;1581;51.568;6.998;2023-02-23T13:00:29;100788.97;;;10.14;100.00
3142;BME280;1581;51.568;6.998;2023-02-23T13:03:30;100781.25;;;9.90;100.00
3142;BME280;1581;51.568;6.998;2023-02-23T13:06:07;100793.22;;;10.23;100.00
3142;BME280;1581;51.568;6.998;2023-02-23T13:09:06;100786.56;;;10.33;100.00
3142;BME280;1581;51.568;6.998;2023-02-23T13:14:43;100786.66;;;9.96;100.00
3142;BME280;1581;51.568;6.998;2023-02-23T13:17:32;100783.81;;;10.27;100.00
3142;BME280;1581;51.568;6.998;2023-02-23T13:20:11;100791.63;;;9.99;100.00
3142;BME280;1581;51.568;6.998;2023-02-23T13:22:48;100791.81;;;10.27;100.00
3142;BME280;1581;51.568;6.998;2023-02-23T13:25:32;100803.75;;;10.30;100.00
3142;BME280;1581;51.568;6.998;2023-02-23T13:28:04;100786.09;;;10.44;100.00
3142;BME280;1581;51.568;6.998;2023-02-23T13:30:34;100795.06;;;10.57;100.00
3142;BME280;1581;51.568;6.998;2023-02-23T13:33:24;100797.97;;;10.41;100.00
3142;BME280;1581;51.568;6.998;2023-02-23T13:35:52;100802.09;;;10.44;100.00
3142;BME280;1581;51.568;6.998;2023-02-23T13:38:30;100805.53;;;10.59;100.00
3142;BME280;1581;51.568;6.998;2023-02-23T13:41:12;100808.69;;;10.62;100.00
3142;BME280;1581;51.568;6.998;2023-02-23T13:43:53;100805.81;;;10.64;100.00
3142;BME280;1581;51.568;6.998;2023-02-23T13:46:42;100803.75;;;10.45;100.00
3142;BME280;1581;51.568;6.998;2023-02-23T13:49:26;100798.63;;;10.15;100.00
3142;BME280;1581;51.568;6.998;2023-02-23T13:52:06;100807.34;;;10.09;100.00
3142;BME280;1581;51.568;6.998;2023-02-23T13:54:35;100797.31;;;10.39;100.00